sensor_id;sensor_type;location;lat;lon;timestamp;temperature;humidity
75281;HTU21D;63874;47.230;39.620;2023-03-01T00:02:12;1.54;74.15
75281;HTU21D;63874;47.230;39.620;2023-03-01T00:04:38;1.56;74.02
75281;HTU21D;63874;47.230;39.620;2023-03-01T00:07:04;1.55;73.94
75281;HTU21D;63874;47.230;39.620;2023-03-01T00:09:30;1.53;73.99
75281;HTU21D;63874;47.230;39.620;2023-03-01T00:11:56;1.54;74.00
75281;HTU21D;63874;47.230;39.620;2023-03-01T00:14:22;1.51;73.94
75281;HTU21D;63874;47.230;39.620;2023-03-01T00:16:47;1.49;74.09
75281;HTU21D;63874;47.230;39.620;2023-03-01T00:19:16;1.49;74.06
75281;HTU21D;63874;47.230;39.620;2023-03-01T00:21:42;1.46;74.08
75281;HTU21D;63874;47.230;39.620;2023-03-01T00:24:09;1.40;74.13
75281;HTU21D;63874;47.230;39.620;2023-03-01T00:26:35;1.42;74.11
75281;HTU21D;63874;47.230;39.620;2023-03-01T00:29:01;1.42;73.83
75281;HTU21D;63874;47.230;39.620;2023-03-01T00:31:30;1.42;73.86
75281;HTU21D;63874;47.230;39.620;2023-03-01T00:34:00;1.39;73.85
75281;HTU21D;63874;47.230;39.620;2023-03-01T00:36:28;1.39;73.82
75281;HTU21D;63874;47.230;39.620;2023-03-01T00:38:55;1.40;73.73
75281;HTU21D;63874;47.230;39.620;2023-03-01T00:41:21;1.38;73.65
75281;HTU21D;63874;47.230;39.620;2023-03-01T00:43:52;1.35;73.64
75281;HTU21D;63874;47.230;39.620;2023-03-01T00:46:21;1.31;73.61
75281;HTU21D;63874;47.230;39.620;2023-03-01T00:48:48;1.28;73.51
75281;HTU21D;63874;47.230;39.620;2023-03-01T00:51:20;1.27;73.40
75281;HTU21D;63874;47.230;39.620;2023-03-01T00:53:47;1.23;73.44
75281;HTU21D;63874;47.230;39.620;2023-03-01T00:56:15;1.22;73.32
75281;HTU21D;63874;47.230;39.620;2023-03-01T00:58:43;1.17;73.48
75281;HTU21D;63874;47.230;39.620;2023-03-01T01:01:13;1.18;73.18
75281;HTU21D;63874;47.230;39.620;2023-03-01T01:03:53;1.16;73.17
75281;HTU21D;63874;47.230;39.620;2023-03-01T01:06:22;1.11;73.20
75281;HTU21D;63874;47.230;39.620;2023-03-01T01:08:49;1.09;73.10
75281;HTU21D;63874;47.230;39.620;2023-03-01T01:11:15;1.06;73.22
75281;HTU21D;63874;47.230;39.620;2023-03-01T01:13:44;1.05;73.19
75281;HTU21D;63874;47.230;39.620;2023-03-01T01:16:10;1.02;73.08
75281;HTU21D;63874;47.230;39.620;2023-03-01T01:18:36;1.02;73.07
75281;HTU21D;63874;47.230;39.620;2023-03-01T01:21:07;0.93;73.15
75281;HTU21D;63874;47.230;39.620;2023-03-01T01:23:34;0.89;73.36
75281;HTU21D;63874;47.230;39.620;2023-03-01T01:26:03;0.89;73.51
75281;HTU21D;63874;47.230;39.620;2023-03-01T01:28:29;0.91;73.50
75281;HTU21D;63874;47.230;39.620;2023-03-01T01:30:55;0.90;73.48
75281;HTU21D;63874;47.230;39.620;2023-03-01T01:33:21;0.92;73.37
75281;HTU21D;63874;47.230;39.620;2023-03-01T01:35:47;0.87;73.39
75281;HTU21D;63874;47.230;39.620;2023-03-01T01:38:13;0.82;73.45
75281;HTU21D;63874;47.230;39.620;2023-03-01T01:40:46;0.84;73.58
75281;HTU21D;63874;47.230;39.620;2023-03-01T01:43:42;0.88;73.68
75281;HTU21D;63874;47.230;39.620;2023-03-01T01:48:58;0.91;73.54
75281;HTU21D;63874;47.230;39.620;2023-03-01T01:51:29;0.93;73.35
75281;HTU21D;63874;47.230;39.620;2023-03-01T01:54:22;0.94;73.35
75281;HTU21D;63874;47.230;39.620;2023-03-01T01:56:54;0.95;73.28
75281;HTU21D;63874;47.230;39.620;2023-03-01T01:59:21;0.93;73.11
75281;HTU21D;63874;47.230;39.620;2023-03-01T02:01:51;0.89;73.22
75281;HTU21D;63874;47.230;39.620;2023-03-01T02:04:17;0.90;73.09
75281;HTU21D;63874;47.230;39.620;2023-03-01T02:06:59;0.82;73.14
75281;HTU21D;63874;47.230;39.620;2023-03-01T02:09:28;0.84;73.19
75281;HTU21D;63874;47.230;39.620;2023-03-01T02:11:54;0.83;73.24
75281;HTU21D;63874;47.230;39.620;2023-03-01T02:14:20;0.82;73.41
75281;HTU21D;63874;47.230;39.620;2023-03-01T02:16:45;0.89;73.34
75281;HTU21D;63874;47.230;39.620;2023-03-01T02:19:22;0.88;73.25
75281;HTU21D;63874;47.230;39.620;2023-03-01T02:21:59;0.87;73.09
75281;HTU21D;63874;47.230;39.620;2023-03-01T02:27:16;0.77;72.98
75281;HTU21D;63874;47.230;39.620;2023-03-01T02:29:43;0.80;73.06
75281;HTU21D;63874;47.230;39.620;2023-03-01T02:32:09;0.82;72.96
75281;HTU21D;63874;47.230;39.620;2023-03-01T02:34:38;0.79;72.96
75281;HTU21D;63874;47.230;39.620;2023-03-01T02:37:11;0.75;73.10
75281;HTU21D;63874;47.230;39.620;2023-03-01T02:39:44;0.74;73.03
75281;HTU21D;63874;47.230;39.620;2023-03-01T02:42:20;0.69;72.84
75281;HTU21D;63874;47.230;39.620;2023-03-01T02:44:49;0.67;72.96
75281;HTU21D;63874;47.230;39.620;2023-03-01T02:47:15;0.72;72.85
75281;HTU21D;63874;47.230;39.620;2023-03-01T02:49:41;0.69;72.77
75281;HTU21D;63874;47.230;39.620;2023-03-01T02:52:21;0.66;72.61
75281;HTU21D;63874;47.230;39.620;2023-03-01T02:54:58;0.59;72.77
75281;HTU21D;63874;47.230;39.620;2023-03-01T02:57:27;0.54;73.02
75281;HTU21D;63874;47.230;39.620;2023-03-01T02:59:57;0.50;73.13
75281;HTU21D;63874;47.230;39.620;2023-03-01T03:02:28;0.50;73.30
75281;HTU21D;63874;47.230;39.620;2023-03-01T03:05:19;0.51;73.48
75281;HTU21D;63874;47.230;39.620;2023-03-01T03:07:47;0.52;73.45
75281;HTU21D;63874;47.230;39.620;2023-03-01T03:10:28;0.54;73.39
75281;HTU21D;63874;47.230;39.620;2023-03-01T03:12:58;0.55;73.40
75281;HTU21D;63874;47.230;39.620;2023-03-01T03:15:26;0.58;73.36
75281;HTU21D;63874;47.230;39.620;2023-03-01T03:17:53;0.62;73.32
75281;HTU21D;63874;47.230;39.620;2023-03-01T03:20:22;0.62;73.16
75281;HTU21D;63874;47.230;39.620;2023-03-01T03:22:51;0.62;73.12
75281;HTU21D;63874;47.230;39.620;2023-03-01T03:25:18;0.60;73.08
75281;HTU21D;63874;47.230;39.620;2023-03-01T03:27:46;0.60;72.95
75281;HTU21D;63874;47.230;39.620;2023-03-01T03:30:17;0.60;72.79
75281;HTU21D;63874;47.230;39.620;2023-03-01T03:32:45;0.51;72.95
75281;HTU21D;63874;47.230;39.620;2023-03-01T03:35:45;0.48;72.94
75281;HTU21D;63874;47.230;39.620;2023-03-01T03:38:13;0.42;72.60
75281;HTU21D;63874;47.230;39.620;2023-03-01T03:43:12;0.22;72.61
75281;HTU21D;63874;47.230;39.620;2023-03-01T03:45:39;0.22;72.25
75281;HTU21D;63874;47.230;39.620;2023-03-01T03:48:05;0.14;72.21
75281;HTU21D;63874;47.230;39.620;2023-03-01T03:50:32;-0.03;72.48
75281;HTU21D;63874;47.230;39.620;2023-03-01T03:53:01;-0.09;72.71
75281;HTU21D;63874;47.230;39.620;2023-03-01T03:55:27;-0.23;72.85
75281;HTU21D;63874;47.230;39.620;2023-03-01T03:57:58;-0.28;73.05
75281;HTU21D;63874;47.230;39.620;2023-03-01T04:00:28;-0.36;73.18
75281;HTU21D;63874;47.230;39.620;2023-03-01T04:02:55;-0.43;73.31
75281;HTU21D;63874;47.230;39.620;2023-03-01T04:05:22;-0.47;73.38
75281;HTU21D;63874;47.230;39.620;2023-03-01T04:07:48;-0.50;73.47
75281;HTU21D;63874;47.230;39.620;2023-03-01T04:10:16;-0.49;73.52
75281;HTU21D;63874;47.230;39.620;2023-03-01T04:12:42;-0.46;73.53
75281;HTU21D;63874;47.230;39.620;2023-03-01T04:15:11;-0.52;73.65
75281;HTU21D;63874;47.230;39.620;2023-03-01T04:17:45;-0.55;73.86
75281;HTU21D;63874;47.230;39.620;2023-03-01T04:20:14;-0.54;73.83
75281;HTU21D;63874;47.230;39.620;2023-03-01T04:22:46;-0.53;73.86
75281;HTU21D;63874;47.230;39.620;2023-03-01T04:25:13;-0.57;73.89
75281;HTU21D;63874;47.230;39.620;2023-03-01T04:27:40;-0.55;73.75
75281;HTU21D;63874;47.230;39.620;2023-03-01T04:30:07;-0.53;73.79
75281;HTU21D;63874;47.230;39.620;2023-03-01T04:32:33;-0.52;73.93
75281;HTU21D;63874;47.230;39.620;2023-03-01T04:34:59;-0.47;73.95
75281;HTU21D;63874;47.230;39.620;2023-03-01T04:37:25;-0.44;73.85
75281;HTU21D;63874;47.230;39.620;2023-03-01T04:39:51;-0.43;73.94
75281;HTU21D;63874;47.230;39.620;2023-03-01T04:42:18;-0.39;74.00
75281;HTU21D;63874;47.230;39.620;2023-03-01T04:44:44;-0.32;73.91
75281;HTU21D;63874;47.230;39.620;2023-03-01T04:47:10;-0.28;73.81
75281;HTU21D;63874;47.230;39.620;2023-03-01T04:49:36;-0.26;73.68
75281;HTU21D;63874;47.230;39.620;2023-03-01T04:52:03;-0.22;73.62
75281;HTU21D;63874;47.230;39.620;2023-03-01T04:54:30;-0.17;73.57
75281;HTU21D;63874;47.230;39.620;2023-03-01T04:56:57;-0.14;73.54
75281;HTU21D;63874;47.230;39.620;2023-03-01T04:59:23;-0.11;73.45
75281;HTU21D;63874;47.230;39.620;2023-03-01T05:01:50;-0.05;73.30
75281;HTU21D;63874;47.230;39.620;2023-03-01T05:04:17;-0.01;73.35
75281;HTU21D;63874;47.230;39.620;2023-03-01T05:06:42;0.05;73.42
75281;HTU21D;63874;47.230;39.620;2023-03-01T05:09:08;0.10;73.03
75281;HTU21D;63874;47.230;39.620;2023-03-01T05:11:34;0.10;73.01
75281;HTU21D;63874;47.230;39.620;2023-03-01T05:14:10;0.08;73.09
75281;HTU21D;63874;47.230;39.620;2023-03-01T05:16:36;0.08;73.22
75281;HTU21D;63874;47.230;39.620;2023-03-01T05:19:03;0.14;73.09
75281;HTU21D;63874;47.230;39.620;2023-03-01T05:21:39;0.10;73.02
75281;HTU21D;63874;47.230;39.620;2023-03-01T05:24:25;0.10;73.12
75281;HTU21D;63874;47.230;39.620;2023-03-01T05:26:52;0.14;73.22
75281;HTU21D;63874;47.230;39.620;2023-03-01T05:29:20;0.17;73.14
75281;HTU21D;63874;47.230;39.620;2023-03-01T05:31:55;0.24;72.91
75281;HTU21D;63874;47.230;39.620;2023-03-01T05:34:29;0.25;72.70
75281;HTU21D;63874;47.230;39.620;2023-03-01T05:36:55;0.20;72.57
75281;HTU21D;63874;47.230;39.620;2023-03-01T05:39:24;0.18;72.54
75281;HTU21D;63874;47.230;39.620;2023-03-01T05:41:55;0.21;72.62
75281;HTU21D;63874;47.230;39.620;2023-03-01T05:44:22;0.23;72.60
75281;HTU21D;63874;47.230;39.620;2023-03-01T05:46:48;0.30;72.46
75281;HTU21D;63874;47.230;39.620;2023-03-01T05:49:15;0.29;72.50
75281;HTU21D;63874;47.230;39.620;2023-03-01T05:51:42;0.31;72.35
75281;HTU21D;63874;47.230;39.620;2023-03-01T05:54:11;0.33;72.47
75281;HTU21D;63874;47.230;39.620;2023-03-01T05:56:37;0.40;72.09
75281;HTU21D;63874;47.230;39.620;2023-03-01T05:59:03;0.42;71.58
75281;HTU21D;63874;47.230;39.620;2023-03-01T06:01:34;0.37;71.55
75281;HTU21D;63874;47.230;39.620;2023-03-01T06:04:01;0.32;71.80
75281;HTU21D;63874;47.230;39.620;2023-03-01T06:06:26;0.29;71.81
75281;HTU21D;63874;47.230;39.620;2023-03-01T06:08:53;0.27;71.85
75281;HTU21D;63874;47.230;39.620;2023-03-01T06:11:19;0.33;72.18
75281;HTU21D;63874;47.230;39.620;2023-03-01T06:13:46;0.45;72.19
75281;HTU21D;63874;47.230;39.620;2023-03-01T06:16:13;0.54;71.87
75281;HTU21D;63874;47.230;39.620;2023-03-01T06:18:40;0.59;71.62
75281;HTU21D;63874;47.230;39.620;2023-03-01T06:21:07;0.57;71.38
75281;HTU21D;63874;47.230;39.620;2023-03-01T06:23:33;0.49;71.22
75281;HTU21D;63874;47.230;39.620;2023-03-01T06:26:00;0.42;71.16
75281;HTU21D;63874;47.230;39.620;2023-03-01T06:28:26;0.38;71.27
75281;HTU21D;63874;47.230;39.620;2023-03-01T06:30:52;0.42;71.45
75281;HTU21D;63874;47.230;39.620;2023-03-01T06:33:19;0.43;71.53
75281;HTU21D;63874;47.230;39.620;2023-03-01T06:35:48;0.44;71.67
75281;HTU21D;63874;47.230;39.620;2023-03-01T06:38:14;0.51;71.51
75281;HTU21D;63874;47.230;39.620;2023-03-01T06:40:40;0.51;71.48
75281;HTU21D;63874;47.230;39.620;2023-03-01T06:43:07;0.48;71.30
75281;HTU21D;63874;47.230;39.620;2023-03-01T06:45:33;0.43;71.06
75281;HTU21D;63874;47.230;39.620;2023-03-01T06:48:04;0.34;71.29
75281;HTU21D;63874;47.230;39.620;2023-03-01T06:50:33;0.31;71.80
75281;HTU21D;63874;47.230;39.620;2023-03-01T06:52:59;0.46;72.01
75281;HTU21D;63874;47.230;39.620;2023-03-01T06:55:25;0.60;71.96
75281;HTU21D;63874;47.230;39.620;2023-03-01T06:57:55;0.74;71.93
75281;HTU21D;63874;47.230;39.620;2023-03-01T07:00:22;0.88;71.51
75281;HTU21D;63874;47.230;39.620;2023-03-01T07:02:48;0.98;70.90
75281;HTU21D;63874;47.230;39.620;2023-03-01T07:05:14;1.03;70.56
75281;HTU21D;63874;47.230;39.620;2023-03-01T07:07:40;1.03;69.96
75281;HTU21D;63874;47.230;39.620;2023-03-01T07:10:06;0.97;70.17
75281;HTU21D;63874;47.230;39.620;2023-03-01T07:12:32;1.01;70.09
75281;HTU21D;63874;47.230;39.620;2023-03-01T07:14:58;1.07;69.71
75281;HTU21D;63874;47.230;39.620;2023-03-01T07:17:24;1.09;69.42
75281;HTU21D;63874;47.230;39.620;2023-03-01T07:19:50;1.09;69.14
75281;HTU21D;63874;47.230;39.620;2023-03-01T07:22:16;1.07;69.47
75281;HTU21D;63874;47.230;39.620;2023-03-01T07:24:42;1.06;69.65
75281;HTU21D;63874;47.230;39.620;2023-03-01T07:27:08;1.07;70.02
75281;HTU21D;63874;47.230;39.620;2023-03-01T07:29:34;1.10;69.61
75281;HTU21D;63874;47.230;39.620;2023-03-01T07:32:03;1.16;69.51
75281;HTU21D;63874;47.230;39.620;2023-03-01T07:34:29;1.21;69.68
75281;HTU21D;63874;47.230;39.620;2023-03-01T07:36:55;1.28;69.63
75281;HTU21D;63874;47.230;39.620;2023-03-01T07:39:20;1.36;68.83
75281;HTU21D;63874;47.230;39.620;2023-03-01T07:41:49;1.36;68.72
75281;HTU21D;63874;47.230;39.620;2023-03-01T07:44:20;1.37;69.17
75281;HTU21D;63874;47.230;39.620;2023-03-01T07:46:46;1.47;68.86
75281;HTU21D;63874;47.230;39.620;2023-03-01T07:49:12;1.49;69.12
75281;HTU21D;63874;47.230;39.620;2023-03-01T07:51:38;1.54;68.84
75281;HTU21D;63874;47.230;39.620;2023-03-01T07:54:04;1.52;68.81
75281;HTU21D;63874;47.230;39.620;2023-03-01T07:56:29;1.56;68.72
75281;HTU21D;63874;47.230;39.620;2023-03-01T07:59:00;1.61;68.45
75281;HTU21D;63874;47.230;39.620;2023-03-01T08:01:26;1.62;68.65
75281;HTU21D;63874;47.230;39.620;2023-03-01T08:03:52;1.70;68.19
75281;HTU21D;63874;47.230;39.620;2023-03-01T08:06:18;1.76;68.11
75281;HTU21D;63874;47.230;39.620;2023-03-01T08:08:44;1.80;68.15
75281;HTU21D;63874;47.230;39.620;2023-03-01T08:11:12;1.87;67.57
75281;HTU21D;63874;47.230;39.620;2023-03-01T08:13:39;1.92;67.07
75281;HTU21D;63874;47.230;39.620;2023-03-01T08:16:07;1.95;66.54
75281;HTU21D;63874;47.230;39.620;2023-03-01T08:18:34;1.97;66.65
75281;HTU21D;63874;47.230;39.620;2023-03-01T08:21:04;2.01;66.90
75281;HTU21D;63874;47.230;39.620;2023-03-01T08:23:31;2.06;66.36
75281;HTU21D;63874;47.230;39.620;2023-03-01T08:26:30;2.13;66.24
75281;HTU21D;63874;47.230;39.620;2023-03-01T08:28:49;2.10;66.31
75281;HTU21D;63874;47.230;39.620;2023-03-01T08:31:35;2.13;65.80
75281;HTU21D;63874;47.230;39.620;2023-03-01T08:34:04;2.15;65.72
75281;HTU21D;63874;47.230;39.620;2023-03-01T08:36:39;2.20;65.83
75281;HTU21D;63874;47.230;39.620;2023-03-01T08:39:06;2.26;66.17
75281;HTU21D;63874;47.230;39.620;2023-03-01T08:41:33;2.29;66.36
75281;HTU21D;63874;47.230;39.620;2023-03-01T08:43:59;2.42;65.82
75281;HTU21D;63874;47.230;39.620;2023-03-01T08:46:36;2.45;65.75
75281;HTU21D;63874;47.230;39.620;2023-03-01T08:49:06;2.54;65.52
75281;HTU21D;63874;47.230;39.620;2023-03-01T08:51:32;2.62;65.12
75281;HTU21D;63874;47.230;39.620;2023-03-01T08:54:20;2.73;65.43
75281;HTU21D;63874;47.230;39.620;2023-03-01T08:56:47;2.80;64.89
75281;HTU21D;63874;47.230;39.620;2023-03-01T08:59:15;2.84;65.10
75281;HTU21D;63874;47.230;39.620;2023-03-01T09:01:41;2.90;64.99
75281;HTU21D;63874;47.230;39.620;2023-03-01T09:04:11;2.96;64.84
75281;HTU21D;63874;47.230;39.620;2023-03-01T09:06:38;3.00;64.56
75281;HTU21D;63874;47.230;39.620;2023-03-01T09:09:05;3.05;64.25
75281;HTU21D;63874;47.230;39.620;2023-03-01T09:11:32;3.16;64.41
75281;HTU21D;63874;47.230;39.620;2023-03-01T09:13:58;3.28;63.98
75281;HTU21D;63874;47.230;39.620;2023-03-01T09:16:24;3.36;63.43
75281;HTU21D;63874;47.230;39.620;2023-03-01T09:18:52;3.40;64.42
75281;HTU21D;63874;47.230;39.620;2023-03-01T09:21:20;3.50;63.75
75281;HTU21D;63874;47.230;39.620;2023-03-01T09:23:47;3.60;63.89
75281;HTU21D;63874;47.230;39.620;2023-03-01T09:26:18;3.75;64.21
75281;HTU21D;63874;47.230;39.620;2023-03-01T09:28:51;4.38;63.11
75281;HTU21D;63874;47.230;39.620;2023-03-01T09:31:22;5.35;61.78
75281;HTU21D;63874;47.230;39.620;2023-03-01T09:33:52;6.33;58.84
75281;HTU21D;63874;47.230;39.620;2023-03-01T09:36:21;7.16;56.32
75281;HTU21D;63874;47.230;39.620;2023-03-01T09:38:50;7.78;54.78
75281;HTU21D;63874;47.230;39.620;2023-03-01T09:44:29;9.03;51.11
75281;HTU21D;63874;47.230;39.620;2023-03-01T09:46:57;9.54;51.08
75281;HTU21D;63874;47.230;39.620;2023-03-01T09:49:29;9.89;48.41
75281;HTU21D;63874;47.230;39.620;2023-03-01T09:54:40;10.28;46.95
75281;HTU21D;63874;47.230;39.620;2023-03-01T09:57:18;10.53;46.28
75281;HTU21D;63874;47.230;39.620;2023-03-01T09:59:56;10.90;45.26
75281;HTU21D;63874;47.230;39.620;2023-03-01T10:05:27;11.98;42.03
75281;HTU21D;63874;47.230;39.620;2023-03-01T10:10:39;12.60;40.53
75281;HTU21D;63874;47.230;39.620;2023-03-01T10:16:53;12.37;37.97
75281;HTU21D;63874;47.230;39.620;2023-03-01T10:19:42;12.45;37.70
75281;HTU21D;63874;47.230;39.620;2023-03-01T10:24:43;12.29;36.69
75281;HTU21D;63874;47.230;39.620;2023-03-01T10:32:20;12.82;36.15
75281;HTU21D;63874;47.230;39.620;2023-03-01T10:34:47;12.90;36.70
75281;HTU21D;63874;47.230;39.620;2023-03-01T10:37:14;13.05;36.98
75281;HTU21D;63874;47.230;39.620;2023-03-01T10:40:10;13.40;35.82
75281;HTU21D;63874;47.230;39.620;2023-03-01T10:42:46;13.65;35.05
75281;HTU21D;63874;47.230;39.620;2023-03-01T10:51:04;13.64;35.56
75281;HTU21D;63874;47.230;39.620;2023-03-01T10:53:35;13.58;36.34
75281;HTU21D;63874;47.230;39.620;2023-03-01T10:58:31;13.69;36.43
75281;HTU21D;63874;47.230;39.620;2023-03-01T11:01:06;13.66;35.39
75281;HTU21D;63874;47.230;39.620;2023-03-01T11:03:37;13.49;35.36
75281;HTU21D;63874;47.230;39.620;2023-03-01T11:06:24;13.38;35.29
75281;HTU21D;63874;47.230;39.620;2023-03-01T11:08:51;13.23;35.73
75281;HTU21D;63874;47.230;39.620;2023-03-01T11:14:00;11.58;37.00
75281;HTU21D;63874;47.230;39.620;2023-03-01T11:16:35;10.01;39.89
75281;HTU21D;63874;47.230;39.620;2023-03-01T11:21:53;7.96;44.63
75281;HTU21D;63874;47.230;39.620;2023-03-01T11:24:34;7.29;45.82
75281;HTU21D;63874;47.230;39.620;2023-03-01T11:27:04;6.76;48.10
75281;HTU21D;63874;47.230;39.620;2023-03-01T11:29:55;6.30;49.40
75281;HTU21D;63874;47.230;39.620;2023-03-01T11:32:26;5.95;50.39
75281;HTU21D;63874;47.230;39.620;2023-03-01T11:35:02;5.65;51.57
75281;HTU21D;63874;47.230;39.620;2023-03-01T11:37:40;5.46;52.52
75281;HTU21D;63874;47.230;39.620;2023-03-01T11:40:11;5.28;53.22
75281;HTU21D;63874;47.230;39.620;2023-03-01T11:42:56;5.08;53.88
75281;HTU21D;63874;47.230;39.620;2023-03-01T11:45:47;4.92;54.60
75281;HTU21D;63874;47.230;39.620;2023-03-01T11:50:52;4.67;56.22
75281;HTU21D;63874;47.230;39.620;2023-03-01T11:56:21;4.49;56.55
75281;HTU21D;63874;47.230;39.620;2023-03-01T12:01:36;4.49;56.92
75281;HTU21D;63874;47.230;39.620;2023-03-01T12:04:36;4.50;57.00
75281;HTU21D;63874;47.230;39.620;2023-03-01T12:29:32;4.27;59.78
75281;HTU21D;63874;47.230;39.620;2023-03-01T12:51:20;4.28;59.31
75281;HTU21D;63874;47.230;39.620;2023-03-01T12:53:51;4.32;59.05
75281;HTU21D;63874;47.230;39.620;2023-03-01T12:56:24;4.31;59.03
75281;HTU21D;63874;47.230;39.620;2023-03-01T13:01:36;4.39;59.10
75281;HTU21D;63874;47.230;39.620;2023-03-01T13:05:05;4.46;59.03
75281;HTU21D;63874;47.230;39.620;2023-03-01T13:07:32;4.49;58.90
75281;HTU21D;63874;47.230;39.620;2023-03-01T13:10:20;4.43;59.06
75281;HTU21D;63874;47.230;39.620;2023-03-01T13:26:12;4.17;60.82
75281;HTU21D;63874;47.230;39.620;2023-03-01T13:31:10;4.10;61.28
75281;HTU21D;63874;47.230;39.620;2023-03-01T13:33:50;4.06;61.45
75281;HTU21D;63874;47.230;39.620;2023-03-01T13:38:58;4.00;61.79
75281;HTU21D;63874;47.230;39.620;2023-03-01T13:47:03;3.97;62.32
75281;HTU21D;63874;47.230;39.620;2023-03-01T13:49:55;3.92;62.34
75281;HTU21D;63874;47.230;39.620;2023-03-01T13:52:38;3.92;62.38
75281;HTU21D;63874;47.230;39.620;2023-03-01T13:55:18;3.89;62.63
75281;HTU21D;63874;47.230;39.620;2023-03-01T13:57:57;3.90;62.71
75281;HTU21D;63874;47.230;39.620;2023-03-01T14:03:16;3.90;62.81
75281;HTU21D;63874;47.230;39.620;2023-03-01T14:06:12;3.88;63.32
75281;HTU21D;63874;47.230;39.620;2023-03-01T14:08:39;3.86;63.15
75281;HTU21D;63874;47.230;39.620;2023-03-01T14:11:47;3.82;63.29
75281;HTU21D;63874;47.230;39.620;2023-03-01T14:19:37;3.69;63.76
75281;HTU21D;63874;47.230;39.620;2023-03-01T14:25:05;3.74;64.18
75281;HTU21D;63874;47.230;39.620;2023-03-01T14:27:39;3.78;64.16
75281;HTU21D;63874;47.230;39.620;2023-03-01T14:32:42;3.80;64.27
75281;HTU21D;63874;47.230;39.620;2023-03-01T14:35:23;3.77;64.05
75281;HTU21D;63874;47.230;39.620;2023-03-01T14:37:50;3.77;64.00
75281;HTU21D;63874;47.230;39.620;2023-03-01T14:40:25;3.75;64.24
75281;HTU21D;63874;47.230;39.620;2023-03-01T14:42:52;3.76;64.11
75281;HTU21D;63874;47.230;39.620;2023-03-01T14:45:19;3.77;64.43
75281;HTU21D;63874;47.230;39.620;2023-03-01T14:47:46;3.72;64.24
75281;HTU21D;63874;47.230;39.620;2023-03-01T14:50:25;3.68;64.40
75281;HTU21D;63874;47.230;39.620;2023-03-01T14:52:54;3.63;64.52
75281;HTU21D;63874;47.230;39.620;2023-03-01T14:57:57;3.58;64.94
75281;HTU21D;63874;47.230;39.620;2023-03-01T15:00:26;3.55;64.98
75281;HTU21D;63874;47.230;39.620;2023-03-01T15:02:55;3.53;65.40
75281;HTU21D;63874;47.230;39.620;2023-03-01T15:05:33;3.53;65.22
75281;HTU21D;63874;47.230;39.620;2023-03-01T15:08:01;3.48;65.53
75281;HTU21D;63874;47.230;39.620;2023-03-01T15:10:30;3.50;65.50
75281;HTU21D;63874;47.230;39.620;2023-03-01T15:13:09;3.52;65.56
75281;HTU21D;63874;47.230;39.620;2023-03-01T15:15:45;3.50;65.59
75281;HTU21D;63874;47.230;39.620;2023-03-01T15:18:13;3.47;65.73
75281;HTU21D;63874;47.230;39.620;2023-03-01T15:20:40;3.48;65.88
75281;HTU21D;63874;47.230;39.620;2023-03-01T15:23:06;3.46;65.79
75281;HTU21D;63874;47.230;39.620;2023-03-01T15:25:44;3.46;66.17
75281;HTU21D;63874;47.230;39.620;2023-03-01T15:28:19;3.48;66.27
75281;HTU21D;63874;47.230;39.620;2023-03-01T15:30:55;3.48;66.16
75281;HTU21D;63874;47.230;39.620;2023-03-01T15:35:50;3.47;66.41
75281;HTU21D;63874;47.230;39.620;2023-03-01T15:38:51;3.46;67.01
75281;HTU21D;63874;47.230;39.620;2023-03-01T15:41:30;3.44;66.88
75281;HTU21D;63874;47.230;39.620;2023-03-01T15:43:58;3.41;67.23
75281;HTU21D;63874;47.230;39.620;2023-03-01T15:46:28;3.39;67.10
75281;HTU21D;63874;47.230;39.620;2023-03-01T15:49:01;3.42;67.27
75281;HTU21D;63874;47.230;39.620;2023-03-01T15:51:33;3.38;67.62
75281;HTU21D;63874;47.230;39.620;2023-03-01T15:54:03;3.35;67.49
75281;HTU21D;63874;47.230;39.620;2023-03-01T15:56:29;3.38;67.46
75281;HTU21D;63874;47.230;39.620;2023-03-01T16:02:11;3.42;67.60
75281;HTU21D;63874;47.230;39.620;2023-03-01T16:04:38;3.43;67.40
75281;HTU21D;63874;47.230;39.620;2023-03-01T16:07:04;3.41;67.80
75281;HTU21D;63874;47.230;39.620;2023-03-01T16:09:30;3.43;67.61
75281;HTU21D;63874;47.230;39.620;2023-03-01T16:11:56;3.45;67.65
75281;HTU21D;63874;47.230;39.620;2023-03-01T16:14:22;3.50;67.70
75281;HTU21D;63874;47.230;39.620;2023-03-01T16:16:48;3.52;67.60
75281;HTU21D;63874;47.230;39.620;2023-03-01T16:19:15;3.54;67.62
75281;HTU21D;63874;47.230;39.620;2023-03-01T16:21:42;3.58;67.52
75281;HTU21D;63874;47.230;39.620;2023-03-01T16:24:09;3.60;67.70
75281;HTU21D;63874;47.230;39.620;2023-03-01T16:26:36;3.67;67.73
75281;HTU21D;63874;47.230;39.620;2023-03-01T16:29:03;3.68;67.70
75281;HTU21D;63874;47.230;39.620;2023-03-01T16:31:29;3.72;67.84
75281;HTU21D;63874;47.230;39.620;2023-03-01T16:33:57;3.72;67.97
75281;HTU21D;63874;47.230;39.620;2023-03-01T16:36:25;3.78;67.98
75281;HTU21D;63874;47.230;39.620;2023-03-01T16:38:54;3.82;68.42
75281;HTU21D;63874;47.230;39.620;2023-03-01T16:41:23;3.85;68.33
75281;HTU21D;63874;47.230;39.620;2023-03-01T16:43:49;3.84;68.38
75281;HTU21D;63874;47.230;39.620;2023-03-01T16:46:18;3.86;68.38
75281;HTU21D;63874;47.230;39.620;2023-03-01T16:48:46;3.86;68.33
75281;HTU21D;63874;47.230;39.620;2023-03-01T16:51:12;3.88;68.44
75281;HTU21D;63874;47.230;39.620;2023-03-01T16:53:41;3.90;68.36
75281;HTU21D;63874;47.230;39.620;2023-03-01T16:56:10;3.94;68.52
75281;HTU21D;63874;47.230;39.620;2023-03-01T16:58:37;4.02;68.62
75281;HTU21D;63874;47.230;39.620;2023-03-01T17:01:11;4.12;68.54
75281;HTU21D;63874;47.230;39.620;2023-03-01T17:03:44;4.09;68.43
75281;HTU21D;63874;47.230;39.620;2023-03-01T17:06:17;4.08;68.53
75281;HTU21D;63874;47.230;39.620;2023-03-01T17:08:46;4.12;68.42
75281;HTU21D;63874;47.230;39.620;2023-03-01T17:11:17;4.15;68.18
75281;HTU21D;63874;47.230;39.620;2023-03-01T17:13:43;4.13;68.01
75281;HTU21D;63874;47.230;39.620;2023-03-01T17:16:12;4.07;68.02
75281;HTU21D;63874;47.230;39.620;2023-03-01T17:18:38;4.07;68.12
75281;HTU21D;63874;47.230;39.620;2023-03-01T17:21:04;4.01;68.32
75281;HTU21D;63874;47.230;39.620;2023-03-01T17:23:32;4.03;67.93
75281;HTU21D;63874;47.230;39.620;2023-03-01T17:25:59;4.00;67.96
75281;HTU21D;63874;47.230;39.620;2023-03-01T17:28:34;4.04;67.76
75281;HTU21D;63874;47.230;39.620;2023-03-01T17:31:01;3.99;67.81
75281;HTU21D;63874;47.230;39.620;2023-03-01T17:33:28;4.03;67.85
75281;HTU21D;63874;47.230;39.620;2023-03-01T17:35:57;4.02;67.89
75281;HTU21D;63874;47.230;39.620;2023-03-01T17:38:23;3.95;67.94
75281;HTU21D;63874;47.230;39.620;2023-03-01T17:40:49;3.91;67.93
75281;HTU21D;63874;47.230;39.620;2023-03-01T17:43:16;3.84;68.13
75281;HTU21D;63874;47.230;39.620;2023-03-01T17:45:44;3.78;68.38
75281;HTU21D;63874;47.230;39.620;2023-03-01T17:48:14;3.79;68.88
75281;HTU21D;63874;47.230;39.620;2023-03-01T17:50:41;3.69;68.70
75281;HTU21D;63874;47.230;39.620;2023-03-01T17:53:07;3.63;68.75
75281;HTU21D;63874;47.230;39.620;2023-03-01T17:55:36;3.61;69.14
75281;HTU21D;63874;47.230;39.620;2023-03-01T17:58:09;3.55;68.94